Time;durP1;ratioP1;P1;durP2;ratioP2;P2;SDS_P1;SDS_P2;PMS_P1;PMS_P2;Temp;Humidity;BMP_temperature;BMP_pressure;BME280_temperature;BME280_humidity;BME280_pressure;Samples;Min_cycle;Max_cycle;Signal;HPM_P1;HPM_P2
2022/10/11 00:01:44;;;;;;;0.80;0.80;;;;;;;4.98;100.00;102390.66;5041345;28;20036;-74
2022/10/11 00:04:09;;;;;;;0.10;0.10;;;;;;;4.79;100.00;102388.53;5037479;28;20115;-74
2022/10/11 00:06:36;;;;;;;0.10;0.10;;;;;;;4.72;100.00;102375.47;5039570;28;20127;-74
2022/10/11 00:09:03;;;;;;;0.10;0.10;;;;;;;4.82;100.00;102392.88;5021482;28;20063;-74
2022/10/11 00:11:28;;;;;;;0.10;0.10;;;;;;;5.03;100.00;102396.72;5038140;28;20112;-74
2022/10/11 00:13:53;;;;;;;0.10;0.10;;;;;;;5.06;100.00;102388.66;5041345;28;20398;-74
2022/10/11 00:16:19;;;;;;;0.10;0.10;;;;;;;5.18;100.00;102395.41;5041202;28;20025;-74
2022/10/11 00:18:44;;;;;;;0.50;0.50;;;;;;;5.09;100.00;102387.66;5035746;28;20052;-74
2022/10/11 00:21:12;;;;;;;0.20;0.20;;;;;;;5.03;100.00;102406.50;5038492;28;20049;-74
2022/10/11 00:23:37;;;;;;;0.10;0.10;;;;;;;4.80;100.00;102390.28;5051774;28;20029;-74
2022/10/11 00:26:05;;;;;;;0.10;0.10;;;;;;;4.95;100.00;102412.94;5017385;28;20025;-74
2022/10/11 00:28:31;;;;;;;0.10;0.10;;;;;;;5.03;100.00;102410.03;5033342;28;20021;-74
2022/10/11 00:30:57;;;;;;;0.10;0.10;;;;;;;5.09;100.00;102406.31;5020095;28;20057;-73
2022/10/11 00:33:22;;;;;;;0.10;0.10;;;;;;;5.15;100.00;102397.28;5038532;28;20108;-74
2022/10/11 00:35:47;;;;;;;0.20;0.20;;;;;;;5.08;100.00;102384.16;5038488;28;20036;-74
2022/10/11 00:38:13;;;;;;;0.10;0.10;;;;;;;5.14;100.00;102398.22;5044091;28;20071;-74
2022/10/11 00:40:38;;;;;;;0.45;0.45;;;;;;;5.09;100.00;102409.88;5041525;28;20052;-74
2022/10/11 00:43:04;;;;;;;0.10;0.10;;;;;;;5.09;100.00;102401.88;5042187;28;20155;-74
2022/10/11 00:45:30;;;;;;;0.10;0.10;;;;;;;5.04;100.00;102424.19;5044523;28;20039;-74
2022/10/11 00:47:59;;;;;;;0.10;0.10;;;;;;;4.93;100.00;102411.19;5041511;28;20032;-74
2022/10/11 00:50:27;;;;;;;0.10;0.10;;;;;;;4.89;100.00;102417.56;5042604;28;20266;-74
2022/10/11 00:52:56;;;;;;;0.10;0.10;;;;;;;5.01;100.00;102421.66;5025704;28;20037;-74
2022/10/11 00:55:23;;;;;;;0.10;0.10;;;;;;;4.87;100.00;102379.47;5042965;28;20037;-74
2022/10/11 00:57:51;;;;;;;0.10;0.10;;;;;;;5.07;100.00;102398.38;5043214;28;20055;-74
2022/10/11 01:00:17;;;;;;;0.17;0.17;;;;;;;5.30;100.00;102422.59;5060368;28;20036;-74
2022/10/11 01:02:42;;;;;;;0.17;0.17;;;;;;;5.34;100.00;102427.75;5041811;28;20028;-74
2022/10/11 01:05:10;;;;;;;0.10;0.10;;;;;;;5.42;100.00;102429.34;5029127;28;20368;-74
2022/10/11 01:07:36;;;;;;;0.13;0.13;;;;;;;5.22;100.00;102397.06;5041720;28;20060;-74
2022/10/11 01:10:02;;;;;;;0.10;0.10;;;;;;;5.41;100.00;102431.09;5040855;28;20163;-74
2022/10/11 01:12:29;;;;;;;0.10;0.10;;;;;;;5.38;100.00;102429.41;5042529;28;20470;-74
2022/10/11 01:15:15;;;;;;;0.20;0.20;;;;;;;5.30;100.00;102433.25;5029115;28;20148;-74
2022/10/11 01:18:01;;;;;;;0.10;0.10;;;;;;;5.11;100.00;102428.44;5042057;28;20029;-74
2022/10/11 01:20:50;;;;;;;0.10;0.10;;;;;;;5.02;100.00;102432.25;5042489;28;20032;-74
2022/10/11 01:23:37;;;;;;;0.10;0.10;;;;;;;4.92;100.00;102433.41;5038022;28;20036;-74
2022/10/11 01:26:15;;;;;;;0.20;0.20;;;;;;;4.85;100.00;102429.19;5045014;28;20082;-74
2022/10/11 01:28:52;;;;;;;0.10;0.10;;;;;;;4.77;100.00;102438.25;5037184;28;20021;-73
2022/10/11 01:31:25;;;;;;;0.10;0.10;;;;;;;4.76;100.00;102438.31;5042591;28;20100;-74
2022/10/11 01:33:57;;;;;;;0.10;0.10;;;;;;;4.76;100.00;102436.53;5038218;28;20035;-74
2022/10/11 01:36:32;;;;;;;0.10;0.10;;;;;;;4.83;100.00;102436.34;5038474;28;20116;-74
2022/10/11 01:39:05;;;;;;;0.20;0.20;;;;;;;4.89;100.00;102442.38;5038052;28;20024;-74
2022/10/11 01:41:37;;;;;;;0.10;0.10;;;;;;;4.89;100.00;102446.84;5057702;28;20029;-74
2022/10/11 01:44:04;;;;;;;0.10;0.10;;;;;;;4.79;100.00;102444.41;5045795;28;20033;-74
2022/10/11 01:46:30;;;;;;;0.10;0.10;;;;;;;4.56;100.00;102450.34;5047218;28;20025;-74
2022/10/11 01:48:57;;;;;;;0.10;0.10;;;;;;;4.43;100.00;102449.81;5040075;28;20036;-74
2022/10/11 01:51:26;;;;;;;0.10;0.10;;;;;;;4.44;100.00;102448.03;5043914;28;20029;-74
2022/10/11 01:54:06;;;;;;;0.10;0.10;;;;;;;4.14;100.00;102419.53;5042928;28;20040;-73
2022/10/11 01:56:50;;;;;;;0.10;0.10;;;;;;;4.36;100.00;102448.25;5038247;28;20031;-73
2022/10/11 01:59:37;;;;;;;0.20;0.20;;;;;;;4.38;100.00;102445.53;5044881;28;20061;-74
2022/10/11 02:02:40;;;;;;;0.10;0.10;;;;;;;4.38;100.00;102443.72;5043613;28;20029;-74
2022/10/11 02:05:13;;;;;;;0.10;0.10;;;;;;;4.23;100.00;102426.41;5035139;28;20035;-74
2022/10/11 02:07:43;;;;;;;0.10;0.10;;;;;;;4.41;100.00;102445.47;5040987;28;20028;-74
2022/10/11 02:10:23;;;;;;;0.32;0.32;;;;;;;4.27;100.00;102449.31;5040453;28;20721;-74
2022/10/11 02:13:12;;;;;;;0.55;0.55;;;;;;;4.10;100.00;102459.53;5037601;28;20111;-74
2022/10/11 02:15:39;;;;;;;0.20;0.20;;;;;;;4.05;100.00;102446.34;5039161;28;20531;-74
2022/10/11 02:18:09;;;;;;;0.17;0.17;;;;;;;4.12;100.00;102453.25;5041327;28;20498;-74
2022/10/11 02:20:36;;;;;;;0.20;0.20;;;;;;;4.11;100.00;102459.47;5034797;28;20502;-74
2022/10/11 02:23:24;;;;;;;0.22;0.22;;;;;;;4.09;100.00;102458.66;5043275;28;20042;-74
2022/10/11 02:25:51;;;;;;;0.20;0.20;;;;;;;4.03;100.00;102450.84;5036664;28;20547;-74
2022/10/11 02:28:21;;;;;;;0.20;0.20;;;;;;;4.09;100.00;102456.00;5040395;28;20417;-74
2022/10/11 02:30:48;;;;;;;0.35;0.35;;;;;;;4.10;100.00;102459.53;5041965;28;20060;-75
2022/10/11 02:33:17;;;;;;;0.10;0.10;;;;;;;4.14;100.00;102458.53;5044764;28;20040;-74
2022/10/11 02:35:46;;;;;;;0.10;0.10;;;;;;;4.23;100.00;102457.44;5039004;28;20028;-74
2022/10/11 02:38:18;;;;;;;0.10;0.10;;;;;;;4.28;100.00;102466.16;5041810;28;20029;-74
2022/10/11 02:40:47;;;;;;;0.20;0.20;;;;;;;3.94;100.00;102424.47;5047763;28;20025;-74
2022/10/11 02:43:23;;;;;;;0.20;0.20;;;;;;;4.07;100.00;102464.91;5044771;28;20025;-74
2022/10/11 02:45:53;;;;;;;0.30;0.30;;;;;;;3.96;100.00;102468.72;5042949;28;20033;-74
2022/10/11 02:48:18;;;;;;;0.20;0.20;;;;;;;3.77;100.00;102440.81;5040938;28;20028;-74
2022/10/11 02:50:43;;;;;;;0.20;0.20;;;;;;;3.89;100.00;102475.94;5041996;28;20384;-74
2022/10/11 02:53:09;;;;;;;0.10;0.10;;;;;;;3.82;100.00;102449.56;5026647;28;20037;-74
2022/10/11 02:55:34;;;;;;;0.30;0.30;;;;;;;3.55;100.00;102430.69;5041767;28;20039;-74
2022/10/11 02:58:00;;;;;;;0.40;0.40;;;;;;;3.67;100.00;102466.72;5042288;28;20041;-74
2022/10/11 03:00:25;;;;;;;0.57;0.57;;;;;;;3.65;100.00;102465.88;5039840;28;20029;-74
2022/10/11 03:02:51;;;;;;;0.20;0.20;;;;;;;3.74;100.00;102471.00;5043309;28;20033;-74
2022/10/11 03:05:16;;;;;;;0.10;0.10;;;;;;;3.62;100.00;102447.34;5042047;28;20031;-74
2022/10/11 03:07:42;;;;;;;0.10;0.10;;;;;;;3.77;100.00;102465.63;5039728;28;20029;-74
2022/10/11 03:10:07;;;;;;;0.20;0.20;;;;;;;3.89;100.00;102478.59;5038047;28;20056;-74
2022/10/11 03:12:33;;;;;;;0.10;0.10;;;;;;;3.63;100.00;102452.66;5040883;28;20457;-74
2022/10/11 03:14:58;;;;;;;0.10;0.10;;;;;;;3.80;100.00;102484.16;5043122;28;20051;-74
2022/10/11 03:17:24;;;;;;;0.20;0.20;;;;;;;3.76;100.00;102471.84;5043912;28;20049;-74
2022/10/11 03:19:49;;;;;;;0.15;0.15;;;;;;;3.75;100.00;102464.78;5040504;28;20028;-74
2022/10/11 03:22:15;;;;;;;0.20;0.20;;;;;;;3.99;100.00;102481.91;5038742;28;20111;-74
2022/10/11 03:24:40;;;;;;;0.20;0.20;;;;;;;4.04;100.00;102472.03;5019935;28;20057;-73
2022/10/11 03:27:05;;;;;;;0.10;0.10;;;;;;;4.10;100.00;102460.41;5041512;28;20075;-74
2022/10/11 03:29:30;;;;;;;0.10;0.10;;;;;;;4.18;100.00;102460.22;5043542;28;20499;-74
2022/10/11 03:31:56;;;;;;;0.10;0.10;;;;;;;4.13;100.00;102441.69;5037749;28;20033;-74
2022/10/11 03:34:21;;;;;;;0.10;0.10;;;;;;;4.38;100.00;102486.28;5040262;28;20506;-74
2022/10/11 03:36:46;;;;;;;0.10;0.10;;;;;;;4.26;100.00;102483.94;5038712;28;20047;-74
2022/10/11 03:39:12;;;;;;;0.10;0.10;;;;;;;3.85;100.00;102468.09;5036353;28;20270;-74
2022/10/11 03:41:37;;;;;;;0.20;0.20;;;;;;;3.53;100.00;102488.28;5037733;28;20354;-74
2022/10/11 03:44:03;;;;;;;0.20;0.20;;;;;;;3.32;100.00;102471.00;5038768;28;20119;-74
2022/10/11 03:46:28;;;;;;;0.10;0.10;;;;;;;3.37;100.00;102485.06;5053020;28;20031;-74
2022/10/11 03:48:53;;;;;;;0.20;0.20;;;;;;;3.40;100.00;102479.69;5040343;28;20140;-74
2022/10/11 03:51:19;;;;;;;0.10;0.10;;;;;;;3.50;100.00;102498.97;5040767;28;20024;-74
2022/10/11 03:53:44;;;;;;;0.10;0.10;;;;;;;3.49;100.00;102500.75;5022306;28;20067;-74
2022/10/11 03:56:09;;;;;;;0.10;0.10;;;;;;;3.28;100.00;102492.34;5038992;28;20406;-74
2022/10/11 03:58:34;;;;;;;0.10;0.10;;;;;;;3.30;100.00;102508.22;5039910;28;20060;-74
2022/10/11 04:01:00;;;;;;;0.10;0.10;;;;;;;3.25;100.00;102500.38;5036852;28;20090;-74
2022/10/11 04:03:25;;;;;;;0.10;0.10;;;;;;;3.05;100.00;102486.59;5038857;28;20033;-74
2022/10/11 04:05:50;;;;;;;0.10;0.10;;;;;;;3.14;100.00;102512.97;5037386;28;20056;-74
2022/10/11 04:08:16;;;;;;;0.30;0.30;;;;;;;2.97;100.00;102519.47;5043112;28;20450;-74
2022/10/11 04:10:41;;;;;;;0.10;0.10;;;;;;;2.87;100.00;102498.47;5038181;28;20033;-74
2022/10/11 04:13:09;;;;;;;0.20;0.20;;;;;;;2.82;100.00;102491.47;5037038;28;20064;-74
2022/10/11 04:15:36;;;;;;;0.10;0.10;;;;;;;3.02;100.00;102515.88;5034716;28;20031;-74
2022/10/11 04:18:01;;;;;;;0.10;0.10;;;;;;;3.04;100.00;102511.41;5038648;28;20036;-74
2022/10/11 04:20:27;;;;;;;0.22;0.22;;;;;;;3.03;100.00;102525.59;5037694;28;20029;-74
2022/10/11 04:22:52;;;;;;;0.45;0.45;;;;;;;2.80;100.00;102505.63;5036636;28;20039;-74
2022/10/11 04:25:17;;;;;;;0.20;0.20;;;;;;;2.57;100.00;102512.22;5037525;28;20467;-74
2022/10/11 04:27:43;;;;;;;0.20;0.20;;;;;;;2.50;100.00;102516.78;5035022;28;20059;-74
2022/10/11 04:30:10;;;;;;;0.10;0.10;;;;;;;2.55;100.00;102514.03;5038531;28;20151;-74
2022/10/11 04:32:35;;;;;;;0.10;0.10;;;;;;;2.53;100.00;102494.63;5040050;28;20036;-74
2022/10/11 04:35:00;;;;;;;0.10;0.10;;;;;;;2.78;100.00;102529.56;5038981;28;20391;-74
2022/10/11 04:37:25;;;;;;;0.10;0.10;;;;;;;2.83;100.00;102543.63;5040225;28;20033;-74
2022/10/11 04:39:51;;;;;;;0.10;0.10;;;;;;;2.62;100.00;102542.19;5020290;28;20128;-72
2022/10/11 04:42:16;;;;;;;0.10;0.10;;;;;;;2.44;100.00;102538.06;5041904;28;20032;-75
2022/10/11 04:44:41;;;;;;;0.15;0.15;;;;;;;2.28;100.00;102510.06;5043308;28;20147;-72
2022/10/11 04:47:07;;;;;;;0.10;0.10;;;;;;;2.33;100.00;102514.41;5040448;28;20120;-74
2022/10/11 04:49:32;;;;;;;0.10;0.10;;;;;;;2.38;100.00;102501.94;5040009;28;20021;-78
2022/10/11 04:51:57;;;;;;;0.10;0.10;;;;;;;2.48;100.00;102509.75;5039531;28;20052;-75
2022/10/11 04:54:23;;;;;;;0.22;0.22;;;;;;;2.51;100.00;102528.28;5038360;28;20036;-77
2022/10/11 04:56:48;;;;;;;0.10;0.10;;;;;;;2.36;100.00;102542.66;5040469;28;20751;-76
2022/10/11 04:59:13;;;;;;;0.17;0.17;;;;;;;2.20;100.00;102552.63;5036978;28;20104;-76
2022/10/11 05:01:39;;;;;;;0.10;0.10;;;;;;;2.24;100.00;102544.59;5035211;28;20017;-74
2022/10/11 05:04:04;;;;;;;0.20;0.20;;;;;;;2.28;100.00;102525.97;5038605;28;20029;-76
2022/10/11 05:06:29;;;;;;;0.10;0.10;;;;;;;2.34;100.00;102524.09;5022975;28;20025;-74
2022/10/11 05:08:55;;;;;;;0.10;0.10;;;;;;;2.20;100.00;102492.50;5022342;28;20106;-75
2022/10/11 05:11:20;;;;;;;0.10;0.10;;;;;;;2.52;100.00;102535.28;5039129;28;20158;-74
2022/10/11 05:13:46;;;;;;;0.10;0.10;;;;;;;2.37;100.00;102513.44;5016627;28;20033;-74
2022/10/11 05:16:12;;;;;;;0.20;0.20;;;;;;;2.44;100.00;102523.97;5039738;28;20070;-75
2022/10/11 05:18:38;;;;;;;0.10;0.10;;;;;;;2.64;100.00;102543.06;5037958;28;20548;-75
2022/10/11 05:21:09;;;;;;;0.20;0.20;;;;;;;2.53;100.00;102518.47;5041691;28;20040;-74
2022/10/11 05:23:36;;;;;;;0.10;0.10;;;;;;;2.50;100.00;102537.97;5037158;28;20132;-73
2022/10/11 05:26:02;;;;;;;0.10;0.10;;;;;;;2.53;100.00;102560.91;5028220;28;20057;-73
2022/10/11 05:28:27;;;;;;;0.20;0.20;;;;;;;2.39;100.00;102562.03;5042757;28;20028;-73
2022/10/11 05:30:53;;;;;;;0.20;0.20;;;;;;;2.31;100.00;102560.41;5044673;28;20025;-73
2022/10/11 05:33:19;;;;;;;0.10;0.10;;;;;;;2.06;100.00;102532.47;5024491;28;20033;-73
2022/10/11 05:35:44;;;;;;;0.20;0.20;;;;;;;2.18;100.00;102554.41;5037466;28;20458;-74
2022/10/11 05:38:10;;;;;;;0.10;0.10;;;;;;;2.33;100.00;102570.06;5042377;28;20040;-73
2022/10/11 05:40:36;;;;;;;0.10;0.10;;;;;;;2.41;100.00;102572.59;5041234;28;20036;-73
2022/10/11 05:43:01;;;;;;;0.10;0.10;;;;;;;2.50;100.00;102577.75;5025550;28;20495;-73
2022/10/11 05:45:27;;;;;;;0.20;0.20;;;;;;;2.23;100.00;102526.94;5042528;28;20033;-74
2022/10/11 05:47:52;;;;;;;0.20;0.20;;;;;;;2.37;100.00;102547.91;5025332;28;20123;-73
2022/10/11 05:50:17;;;;;;;0.10;0.10;;;;;;;2.23;100.00;102555.22;5038979;28;20140;-73
2022/10/11 05:52:43;;;;;;;0.10;0.10;;;;;;;2.13;100.00;102558.91;5043945;28;20450;-73
2022/10/11 05:55:08;;;;;;;0.20;0.20;;;;;;;2.01;100.00;102563.47;5039830;28;20021;-74
2022/10/11 05:57:33;;;;;;;0.10;0.10;;;;;;;1.90;100.00;102597.19;5036986;28;20055;-73
2022/10/11 05:59:59;;;;;;;0.10;0.10;;;;;;;1.74;100.00;102564.72;5040109;28;20601;-73
2022/10/11 06:02:24;;;;;;;0.10;0.10;;;;;;;1.90;100.00;102583.94;5037676;28;20517;-73
2022/10/11 06:04:49;;;;;;;0.20;0.20;;;;;;;1.83;100.00;102569.03;5023847;28;20108;-73
2022/10/11 06:07:15;;;;;;;0.10;0.10;;;;;;;1.80;100.00;102567.31;5046223;28;20119;-73
2022/10/11 06:09:40;;;;;;;0.13;0.13;;;;;;;1.72;100.00;102558.56;5025516;28;20104;-72
2022/10/11 06:12:05;;;;;;;0.20;0.20;;;;;;;2.02;100.00;102589.06;5039028;28;20677;-73
2022/10/11 06:14:31;;;;;;;0.10;0.10;;;;;;;2.09;100.00;102579.28;5023468;28;22054;-73
2022/10/11 06:16:56;;;;;;;0.10;0.10;;;;;;;2.17;100.00;102571.22;5043052;28;20127;-73
2022/10/11 06:19:21;;;;;;;0.20;0.20;;;;;;;2.24;100.00;102567.56;5043093;28;20028;-73
2022/10/11 06:21:47;;;;;;;0.20;0.20;;;;;;;2.25;100.00;102570.19;5026279;28;20064;-73
2022/10/11 06:24:12;;;;;;;0.10;0.10;;;;;;;2.24;100.00;102570.22;5040028;28;20036;-73
2022/10/11 06:26:38;;;;;;;0.15;0.15;;;;;;;2.43;100.00;102586.69;5041720;28;20082;-73
2022/10/11 06:29:03;;;;;;;0.10;0.10;;;;;;;2.61;100.00;102597.94;5028215;28;20474;-73
2022/10/11 06:31:29;;;;;;;0.10;0.10;;;;;;;2.78;100.00;102610.94;5020451;28;20036;-73
2022/10/11 06:33:54;;;;;;;0.20;0.20;;;;;;;2.82;100.00;102594.91;5039054;28;20435;-73
2022/10/11 06:36:20;;;;;;;0.20;0.20;;;;;;;2.85;100.00;102580.72;5040397;28;20035;-73
2022/10/11 06:38:45;;;;;;;0.20;0.20;;;;;;;3.08;100.00;102598.00;5039325;28;20044;-73
2022/10/11 06:41:19;;;;;;;0.10;0.10;;;;;;;3.28;100.00;102614.47;5038656;28;20476;-73
2022/10/11 06:43:44;;;;;;;0.20;0.20;;;;;;;3.44;100.00;102624.78;5039544;28;20055;-73
2022/10/11 06:46:10;;;;;;;0.20;0.20;;;;;;;3.54;100.00;102623.72;5039243;28;20491;-73
2022/10/11 06:48:42;;;;;;;0.10;0.10;;;;;;;3.70;100.00;102621.63;5039845;28;20128;-73
2022/10/11 06:51:07;;;;;;;0.22;0.22;;;;;;;3.63;100.00;102604.06;5023874;28;20070;-73
2022/10/11 06:53:32;;;;;;;0.10;0.10;;;;;;;3.74;100.00;102619.78;5044817;28;20033;-73
2022/10/11 06:56:03;;;;;;;0.20;0.20;;;;;;;3.81;100.00;102616.09;5038284;28;20143;-73
2022/10/11 06:58:28;;;;;;;0.25;0.25;;;;;;;4.10;100.00;102629.66;5038239;28;20044;-73
2022/10/11 07:00:53;;;;;;;0.10;0.10;;;;;;;4.24;100.00;102629.34;5042532;28;20033;-73
2022/10/11 07:03:19;;;;;;;0.10;0.10;;;;;;;4.25;100.00;102617.81;5043988;28;20479;-73
2022/10/11 07:05:44;;;;;;;0.20;0.20;;;;;;;4.50;100.00;102634.94;5043286;28;20032;-73
2022/10/11 07:08:09;;;;;;;0.20;0.20;;;;;;;4.56;100.00;102622.41;5044387;28;20075;-73
2022/10/11 07:10:35;;;;;;;0.13;0.13;;;;;;;4.69;100.00;102604.38;5024057;28;20041;-73
2022/10/11 07:13:01;;;;;;;0.20;0.20;;;;;;;4.99;100.00;102618.69;5026809;28;20071;-73
2022/10/11 07:15:26;;;;;;;0.20;0.20;;;;;;;5.14;100.00;102635.19;5042325;28;20041;-73
2022/10/11 07:17:51;;;;;;;0.20;0.20;;;;;;;5.04;100.00;102608.78;5038753;28;20437;-73
2022/10/11 07:20:16;;;;;;;0.20;0.20;;;;;;;5.17;100.00;102622.66;5042315;28;20064;-73
2022/10/11 07:22:42;;;;;;;0.20;0.20;;;;;;;5.37;100.00;102650.53;5040686;28;20032;-73
2022/10/11 07:25:07;;;;;;;0.15;0.15;;;;;;;5.55;100.00;102659.81;5042933;28;20566;-73
2022/10/11 07:27:32;;;;;;;0.20;0.20;;;;;;;5.78;100.00;102655.63;5022311;28;20073;-73
2022/10/11 07:29:58;;;;;;;0.10;0.10;;;;;;;5.95;100.00;102648.06;5037153;28;20535;-73
2022/10/11 07:32:23;;;;;;;0.13;0.13;;;;;;;5.99;100.00;102625.69;5038853;28;20635;-73
2022/10/11 07:34:49;;;;;;;0.10;0.10;;;;;;;6.32;100.00;102661.22;5020801;28;20045;-73
2022/10/11 07:37:14;;;;;;;0.13;0.13;;;;;;;6.37;100.00;102648.63;5040866;28;20033;-73
2022/10/11 07:39:39;;;;;;;0.28;0.28;;;;;;;6.59;100.00;102662.16;5042752;28;20032;-73
2022/10/11 07:42:05;;;;;;;0.17;0.17;;;;;;;6.70;100.00;102667.16;5039572;28;20575;-73
2022/10/11 07:44:30;;;;;;;0.10;0.10;;;;;;;6.77;100.00;102663.34;5037254;28;20025;-73
2022/10/11 07:46:56;;;;;;;0.20;0.20;;;;;;;6.95;100.00;102669.88;5042451;28;20037;-73
2022/10/11 07:49:21;;;;;;;0.10;0.10;;;;;;;6.96;100.00;102655.59;5041662;28;20033;-73
2022/10/11 07:51:46;;;;;;;0.20;0.20;;;;;;;7.09;100.00;102650.72;5040383;28;20530;-73
2022/10/11 07:54:12;;;;;;;0.10;0.10;;;;;;;7.25;100.00;102672.44;5043207;28;20622;-73
2022/10/11 07:56:38;;;;;;;0.10;0.10;;;;;;;7.40;100.00;102671.03;5021608;28;20047;-73
2022/10/11 07:59:04;;;;;;;0.10;0.10;;;;;;;7.45;100.00;102647.69;5035184;28;20029;-73
2022/10/11 08:01:29;;;;;;;0.10;0.10;;;;;;;7.58;100.00;102655.25;5024353;28;20027;-73
2022/10/11 08:03:58;;;;;;;0.20;0.20;;;;;;;7.74;100.00;102663.59;5039474;28;20090;-73
2022/10/11 08:06:28;;;;;;;0.10;0.10;;;;;;;7.82;100.00;102669.56;5035008;28;20037;-73
2022/10/11 08:08:53;;;;;;;0.20;0.20;;;;;;;7.92;100.00;102660.28;5024562;28;20025;-73
2022/10/11 08:11:30;;;;;;;0.10;0.10;;;;;;;8.23;100.00;102677.81;5043235;28;20426;-73
2022/10/11 08:13:57;;;;;;;0.17;0.17;;;;;;;8.47;100.00;102671.56;5035953;28;20385;-73
2022/10/11 08:16:23;;;;;;;0.20;0.20;;;;;;;8.58;100.00;102674.72;5036171;28;20033;-73
2022/10/11 08:18:48;;;;;;;0.20;0.20;;;;;;;8.61;100.00;102665.69;5035822;28;20036;-73
2022/10/11 08:21:15;;;;;;;0.20;0.20;;;;;;;8.93;100.00;102679.59;5039225;28;20048;-73
2022/10/11 08:23:40;;;;;;;0.20;0.20;;;;;;;9.13;100.00;102671.56;5024487;28;20032;-73
2022/10/11 08:26:06;;;;;;;0.20;0.20;;;;;;;9.38;100.00;102686.59;5024257;28;20736;-73
2022/10/11 08:28:31;;;;;;;0.10;0.10;;;;;;;9.40;100.00;102668.63;5040896;28;20090;-73
2022/10/11 08:30:57;;;;;;;0.10;0.10;;;;;;;9.62;100.00;102697.19;5040858;28;20037;-73
2022/10/11 08:33:23;;;;;;;0.10;0.10;;;;;;;9.86;100.00;102692.56;5043177;28;20032;-73
2022/10/11 08:35:49;;;;;;;0.20;0.20;;;;;;;9.96;100.00;102668.84;5039170;28;20025;-73
2022/10/11 08:38:15;;;;;;;0.10;0.10;;;;;;;10.25;100.00;102693.47;5038141;28;20039;-73
2022/10/11 08:40:52;;;;;;;0.10;0.10;;;;;;;10.56;100.00;102699.22;5038958;28;20071;-73
2022/10/11 08:43:39;;;;;;;0.20;0.20;;;;;;;10.76;100.00;102699.13;5039236;28;20021;-73
2022/10/11 08:46:06;;;;;;;0.10;0.10;;;;;;;11.04;100.00;102699.56;5038433;28;20029;-73
2022/10/11 08:48:48;;;;;;;0.20;0.20;;;;;;;11.08;100.00;102677.84;5025225;28;20488;-73
2022/10/11 08:51:18;;;;;;;0.10;0.10;;;;;;;11.34;100.00;102689.06;5040074;28;20103;-73
2022/10/11 08:53:52;;;;;;;0.10;0.10;;;;;;;11.45;100.00;102674.22;5024828;28;20029;-73
2022/10/11 08:56:18;;;;;;;0.20;0.20;;;;;;;11.33;99.28;102673.88;5039829;28;20053;-73
2022/10/11 08:58:45;;;;;;;0.13;0.13;;;;;;;11.64;96.67;102704.56;5040250;28;20033;-73
2022/10/11 09:01:23;;;;;;;0.10;0.10;;;;;;;11.61;100.00;102675.13;5041071;28;20040;-73
2022/10/11 09:03:49;;;;;;;0.10;0.10;;;;;;;11.62;95.67;102673.31;5018928;28;20029;-73
2022/10/11 09:06:29;;;;;;;0.10;0.10;;;;;;;11.79;94.19;102696.63;5041065;28;20477;-74
2022/10/11 09:09:03;;;;;;;0.20;0.20;;;;;;;11.86;93.55;102706.09;5046246;28;20029;-73
2022/10/11 09:11:55;;;;;;;0.10;0.10;;;;;;;11.82;96.08;102675.81;5026688;28;20471;-73
2022/10/11 09:14:45;;;;;;;0.17;0.17;;;;;;;11.90;92.55;102678.09;5025914;28;20029;-73
2022/10/11 09:17:20;;;;;;;0.10;0.10;;;;;;;12.37;93.87;102708.78;5042342;28;20036;-73
2022/10/11 09:20:04;;;;;;;0.17;0.17;;;;;;;12.40;93.66;102710.41;5041667;28;20044;-75
2022/10/11 09:23:02;;;;;;;0.10;0.10;;;;;;;12.48;92.09;102683.03;5043325;28;20021;-73
2022/10/11 09:25:48;;;;;;;0.10;0.10;;;;;;;12.67;89.03;102688.25;5055000;28;20405;-75
2022/10/11 09:28:27;;;;;;;0.15;0.10;;;;;;;12.82;87.24;102708.94;5039662;28;20437;-77
2022/10/11 09:30:54;;;;;;;0.00;0.00;;;;;;;13.07;90.25;102712.03;5038133;28;20037;-74
2022/10/11 09:33:29;;;;;;;0.10;0.10;;;;;;;12.93;86.09;102675.09;5038939;28;20025;-74
2022/10/11 09:35:55;;;;;;;0.10;0.10;;;;;;;13.29;88.35;102695.44;5040531;28;20021;-73
2022/10/11 09:38:30;;;;;;;0.10;0.10;;;;;;;13.45;84.68;102712.47;5045590;28;20032;-73
2022/10/11 09:41:12;;;;;;;0.00;0.00;;;;;;;13.70;83.65;102716.38;5042438;28;20155;-74
2022/10/11 09:43:38;;;;;;;0.10;0.10;;;;;;;13.99;77.76;102715.56;5046010;28;20355;-74
2022/10/11 09:46:14;;;;;;;0.10;0.10;;;;;;;14.32;78.99;102695.44;5028674;28;20029;-74
2022/10/11 09:48:40;;;;;;;0.10;0.10;;;;;;;14.57;76.97;102693.88;5035105;28;20080;-73
2022/10/11 09:51:12;;;;;;;0.10;0.10;;;;;;;14.88;75.75;102706.25;5041820;28;20645;-74
2022/10/11 09:53:52;;;;;;;0.10;0.10;;;;;;;15.14;72.46;102709.06;5027873;28;20134;-74
2022/10/11 09:56:17;;;;;;;0.10;0.10;;;;;;;15.42;73.59;102704.47;5041769;28;20131;-74
2022/10/11 09:58:43;;;;;;;0.00;0.00;;;;;;;15.73;71.61;102711.31;5039294;28;20372;-74
2022/10/11 10:01:11;;;;;;;0.17;0.17;;;;;;;15.97;70.61;102713.28;5037360;28;20077;-74
2022/10/11 10:03:43;;;;;;;0.10;0.10;;;;;;;15.67;69.98;102667.56;5044602;28;20055;-73
2022/10/11 10:06:25;;;;;;;0.10;0.10;;;;;;;15.68;66.44;102716.16;5037665;28;20517;-74
2022/10/11 10:08:51;;;;;;;0.20;0.20;;;;;;;15.47;68.22;102677.06;5045395;28;20712;-74
2022/10/11 10:11:17;;;;;;;0.10;0.10;;;;;;;15.89;66.29;102710.28;5042953;28;20037;-74
2022/10/11 10:13:44;;;;;;;0.00;0.00;;;;;;;16.38;66.17;102713.13;5035047;28;20025;-73
2022/10/11 10:16:25;;;;;;;0.10;0.10;;;;;;;16.66;63.36;102695.69;5046478;28;20440;-73
2022/10/11 10:18:58;;;;;;;0.10;0.10;;;;;;;16.99;59.15;102710.44;5038000;28;20441;-73
2022/10/11 10:21:33;;;;;;;0.15;0.15;;;;;;;17.23;60.19;102702.25;5031963;28;20032;-74
2022/10/11 10:24:02;;;;;;;0.10;0.10;;;;;;;17.31;58.31;102676.38;5038677;28;20362;-74
2022/10/11 10:26:29;;;;;;;0.10;0.10;;;;;;;17.86;58.01;102690.19;5024328;28;20465;-74
2022/10/11 10:29:07;;;;;;;0.00;0.00;;;;;;;18.16;53.36;102702.31;5037986;28;20032;-74
2022/10/11 10:32:01;;;;;;;0.10;0.10;;;;;;;17.98;50.96;102678.34;5043047;28;20025;-74
2022/10/11 10:34:30;;;;;;;0.10;0.10;;;;;;;18.03;49.60;102693.41;5050318;28;20095;-74
2022/10/11 10:37:04;;;;;;;0.00;0.00;;;;;;;18.24;50.35;102677.25;5040168;28;20052;-74
2022/10/11 10:40:04;;;;;;;0.10;0.10;;;;;;;18.23;47.57;102703.53;5040148;28;20040;-75
2022/10/11 10:42:30;;;;;;;0.00;0.00;;;;;;;18.86;49.62;102686.59;5034425;28;20033;-74
2022/10/11 10:44:57;;;;;;;0.00;0.00;;;;;;;19.08;48.45;102692.09;5044635;28;20094;-74
2022/10/11 10:48:02;;;;;;;0.10;0.10;;;;;;;19.26;50.23;102687.81;5045157;28;20380;-74
2022/10/11 10:50:49;;;;;;;0.00;0.00;;;;;;;18.92;44.89;102698.81;5042148;28;20071;-76
2022/10/11 10:53:28;;;;;;;0.10;0.10;;;;;;;19.77;45.76;102687.97;5033152;28;20672;-75
2022/10/11 10:56:23;;;;;;;0.08;0.08;;;;;;;20.31;45.84;102698.72;5017940;28;20071;-74
2022/10/11 10:59:13;;;;;;;0.00;0.00;;;;;;;19.48;44.50;102688.69;5037093;28;20104;-76
2022/10/11 11:01:52;;;;;;;0.10;0.10;;;;;;;18.69;45.89;102687.13;5039462;28;20033;-77
2022/10/11 11:04:30;;;;;;;0.03;0.03;;;;;;;18.33;47.92;102676.47;5034924;28;20029;-77
2022/10/11 11:07:44;;;;;;;0.13;0.13;;;;;;;18.99;48.68;102691.03;5036664;28;20199;-76
2022/10/11 11:10:17;;;;;;;0.03;0.03;;;;;;;19.37;46.13;102681.44;5033617;28;20320;-76
2022/10/11 11:13:03;;;;;;;0.10;0.10;;;;;;;19.56;45.42;102677.97;5041751;28;20063;-79
2022/10/11 11:15:41;;;;;;;0.10;0.10;;;;;;;20.24;46.34;102660.22;5021956;28;20037;-75
2022/10/11 11:18:12;;;;;;;0.10;0.10;;;;;;;20.76;42.44;102681.88;5035958;28;20029;-77
2022/10/11 11:21:12;;;;;;;0.10;0.10;;;;;;;21.62;41.54;102660.25;5037330;28;20034;-76
2022/10/11 11:24:05;;;;;;;0.10;0.10;;;;;;;22.75;40.92;102671.91;5036701;28;20052;-76
2022/10/11 11:26:39;;;;;;;0.10;0.10;;;;;;;24.06;36.67;102674.91;5037700;28;20033;-75
2022/10/11 11:29:14;;;;;;;;;;;;;;;23.60;35.73;102670.56;5039181;28;20120;-76
2022/10/11 11:32:01;;;;;;;0.00;0.00;;;;;;;21.97;37.85;102664.16;5039114;28;20327;-77
2022/10/11 11:34:36;;;;;;;0.00;0.00;;;;;;;21.22;42.27;102653.97;5038173;28;20037;-75
2022/10/11 11:37:20;;;;;;;0.00;0.00;;;;;;;21.44;41.75;102666.44;5035827;28;20107;-75